createdAt,value
2023-01-10T06:17:52.793Z,1007.69
2023-01-10T06:27:52.813Z,1007.89
2023-01-10T06:37:52.850Z,1008.08
2023-01-10T06:47:53.029Z,1008.20
2023-01-10T06:57:52.914Z,1008.45
2023-01-10T07:07:53.090Z,1008.58
2023-01-10T07:17:53.117Z,1008.71
2023-01-10T07:27:53.038Z,1008.80
2023-01-10T07:37:53.102Z,1008.92
2023-01-10T07:47:52.966Z,1009.03
2023-01-10T07:57:52.999Z,1009.17
2023-01-10T08:07:53.064Z,1009.23
2023-01-10T08:17:53.003Z,1009.23
2023-01-10T08:27:53.111Z,1009.24
2023-01-10T08:37:53.172Z,1009.40
2023-01-10T08:47:53.310Z,1009.65
2023-01-10T08:57:53.448Z,1009.67
2023-01-10T09:07:53.528Z,1009.61
2023-01-10T09:17:53.727Z,1009.63
2023-01-10T09:27:53.406Z,1009.75
2023-01-10T09:37:53.413Z,1010.04
2023-01-10T09:47:53.475Z,1010.20
2023-01-10T09:57:53.534Z,1010.28
2023-01-10T10:07:53.513Z,1010.28
2023-01-10T10:17:53.522Z,1010.28
2023-01-10T10:27:53.450Z,1010.16
2023-01-10T10:37:53.465Z,1010.09
2023-01-10T10:47:53.504Z,1010.26
2023-01-10T10:58:00.563Z,1010.36
2023-01-10T11:07:53.637Z,1010.32
2023-01-10T11:17:53.469Z,1010.43
2023-01-10T11:27:53.514Z,1010.53
2023-01-10T11:37:53.406Z,1010.56
2023-01-10T11:47:53.499Z,1010.43
2023-01-10T11:57:53.584Z,1010.32
2023-01-10T12:07:53.799Z,1010.39
2023-01-10T12:17:53.461Z,1010.35
2023-01-10T12:27:53.306Z,1010.43
2023-01-10T12:37:53.369Z,1010.33
2023-01-10T12:47:53.479Z,1010.44
2023-01-10T12:57:53.413Z,1010.43
2023-01-10T13:07:53.489Z,1010.43
2023-01-10T13:17:53.506Z,1010.37
2023-01-10T13:27:53.401Z,1010.36
2023-01-10T13:37:53.427Z,1010.27
2023-01-10T13:47:53.441Z,1010.20
2023-01-10T13:57:53.435Z,1010.13
2023-01-10T14:07:53.471Z,1010.14
2023-01-10T14:17:53.481Z,1010.29
2023-01-10T14:27:53.542Z,1010.27
2023-01-10T14:37:53.553Z,1010.27
2023-01-10T14:47:53.627Z,1010.18
2023-01-10T14:57:53.462Z,1009.85
2023-01-10T15:07:53.520Z,1009.82
2023-01-10T15:17:53.569Z,1009.88
2023-01-10T15:27:53.585Z,1009.89
2023-01-10T15:37:53.575Z,1009.78
2023-01-10T15:47:53.674Z,1009.77
2023-01-10T15:57:53.579Z,1009.71
2023-01-10T16:07:53.573Z,1009.71
2023-01-10T16:17:53.670Z,1009.53
2023-01-10T16:27:53.720Z,1009.35
2023-01-10T16:37:53.689Z,1009.35
2023-01-10T16:47:53.825Z,1009.24
2023-01-10T16:57:53.714Z,1008.97
2023-01-10T17:07:53.738Z,1008.90
2023-01-10T17:17:53.634Z,1008.85
2023-01-10T17:27:53.659Z,1008.68
2023-01-10T17:37:53.625Z,1008.48
2023-01-10T17:47:53.866Z,1008.48
2023-01-10T17:57:53.755Z,1008.37
2023-01-10T18:07:53.736Z,1008.23
2023-01-10T18:17:53.764Z,1008.14
2023-01-10T18:27:53.946Z,1007.81
2023-01-10T18:37:54.297Z,1007.65
2023-01-10T18:47:53.734Z,1007.73
2023-01-10T18:57:53.873Z,1007.58
2023-01-10T19:07:53.830Z,1007.52
2023-01-10T19:17:53.964Z,1007.52
